createdAt,value
2019-02-23T00:01:37.515Z,36.03
2019-02-23T00:04:05.163Z,36.80
2019-02-23T00:06:32.770Z,37.87
2019-02-23T00:09:00.352Z,35.83
2019-02-23T00:11:27.929Z,35.43
2019-02-23T00:13:55.521Z,36.20
2019-02-23T00:16:23.116Z,34.87
2019-02-23T00:18:53.828Z,35.90
2019-02-23T00:21:21.377Z,33.33
2019-02-23T00:23:49.031Z,34.23
2019-02-23T00:26:16.641Z,35.77
2019-02-23T00:28:47.738Z,35.13
2019-02-23T00:31:15.345Z,33.63
2019-02-23T00:33:42.997Z,33.27
2019-02-23T00:36:10.561Z,32.83
2019-02-23T00:38:40.213Z,32.40
2019-02-23T00:41:13.099Z,32.20
2019-02-23T00:43:40.867Z,33.93
2019-02-23T00:46:08.598Z,32.53
2019-02-23T00:48:36.285Z,31.10
2019-02-23T00:51:04.257Z,30.47
2019-02-23T00:53:31.935Z,30.50
2019-02-23T00:55:59.639Z,29.83
2019-02-23T00:58:30.486Z,29.40
2019-02-23T01:01:04.407Z,31.87
2019-02-23T01:03:32.160Z,29.53
2019-02-23T01:06:04.719Z,29.33
2019-02-23T01:08:32.670Z,29.37
2019-02-23T01:11:01.622Z,28.20
2019-02-23T01:13:34.036Z,26.10
2019-02-23T01:16:03.433Z,26.80
2019-02-23T01:18:32.572Z,25.77
2019-02-23T01:21:02.755Z,27.50
2019-02-23T01:23:31.936Z,28.70
2019-02-23T01:26:01.749Z,28.33
2019-02-23T01:28:29.521Z,27.70
2019-02-23T01:31:00.081Z,28.30
2019-02-23T01:33:33.731Z,27.97
2019-02-23T01:36:04.113Z,30.03
2019-02-23T01:38:31.787Z,30.40
2019-02-23T01:40:59.711Z,31.07
2019-02-23T01:43:29.310Z,29.60
2019-02-23T01:45:57.382Z,29.03
2019-02-23T01:48:30.376Z,31.60
2019-02-23T01:50:59.462Z,32.17
2019-02-23T01:53:29.094Z,30.77
2019-02-23T01:55:56.955Z,32.43
2019-02-23T01:58:29.734Z,30.10
2019-02-23T02:00:59.525Z,28.53
2019-02-23T02:03:27.090Z,27.30
2019-02-23T02:06:01.197Z,28.00
2019-02-23T02:08:34.715Z,29.07
2019-02-23T02:11:05.319Z,29.10
2019-02-23T02:13:38.398Z,26.03
2019-02-23T02:16:06.576Z,25.93
2019-02-23T02:18:37.482Z,24.83
2019-02-23T02:21:09.320Z,25.33
2019-02-23T02:23:40.405Z,25.67
2019-02-23T02:26:14.962Z,22.30
2019-02-23T02:28:45.586Z,22.03
2019-02-23T02:31:17.713Z,21.27
2019-02-23T02:34:08.452Z,20.40
2019-02-23T02:36:36.190Z,19.60
2019-02-23T02:39:10.182Z,19.17
2019-02-23T02:41:37.840Z,20.30
2019-02-23T02:44:05.513Z,22.53
2019-02-23T02:46:33.073Z,23.73
2019-02-23T02:49:00.778Z,21.50
2019-02-23T02:51:28.409Z,21.47
2019-02-23T02:53:55.997Z,22.23
2019-02-23T02:56:23.641Z,22.33
2019-02-23T02:58:51.216Z,23.67
2019-02-23T03:01:18.881Z,22.73
2019-02-23T03:03:46.535Z,22.27
2019-02-23T03:06:14.555Z,22.67
2019-02-23T03:08:42.162Z,22.53
2019-02-23T03:11:09.754Z,22.93
2019-02-23T03:13:37.274Z,21.83
2019-02-23T03:16:04.845Z,21.33
2019-02-23T03:18:32.424Z,22.97
2019-02-23T03:20:59.972Z,22.33
2019-02-23T03:23:27.612Z,24.13
2019-02-23T03:25:55.186Z,24.80
2019-02-23T03:28:22.839Z,23.50
2019-02-23T03:30:50.357Z,24.80
2019-02-23T03:33:17.951Z,25.17
2019-02-23T03:35:45.513Z,23.67
2019-02-23T03:38:13.081Z,24.37
2019-02-23T03:40:40.709Z,24.70
2019-02-23T03:43:08.306Z,25.20
2019-02-23T03:45:36.043Z,25.90
2019-02-23T03:48:03.678Z,24.73
2019-02-23T03:50:31.247Z,25.53
2019-02-23T03:52:58.880Z,24.57
2019-02-23T03:55:26.527Z,23.80
2019-02-23T03:57:54.107Z,24.33
2019-02-23T04:00:21.702Z,24.47
2019-02-23T04:02:49.333Z,24.27
2019-02-23T04:05:16.866Z,25.10
2019-02-23T04:07:44.465Z,24.83
2019-02-23T04:10:12.060Z,22.10
2019-02-23T04:12:39.658Z,23.00
2019-02-23T04:15:07.481Z,22.63
2019-02-23T04:17:35.000Z,23.63
2019-02-23T04:20:03.648Z,23.57
2019-02-23T04:22:31.237Z,23.53
2019-02-23T04:24:58.788Z,23.03
2019-02-23T04:27:26.371Z,22.13
2019-02-23T04:29:53.916Z,22.43
2019-02-23T04:32:21.479Z,22.50
2019-02-23T04:34:49.155Z,22.70
2019-02-23T04:37:16.784Z,22.87
2019-02-23T04:39:44.350Z,23.03
2019-02-23T04:42:11.983Z,22.63
2019-02-23T04:44:39.637Z,21.67
2019-02-23T04:47:11.339Z,23.20
2019-02-23T04:49:49.433Z,21.90
2019-02-23T04:52:20.597Z,21.83
2019-02-23T04:54:51.283Z,21.77
2019-02-23T04:57:22.617Z,22.00
2019-02-23T04:59:54.479Z,22.90
2019-02-23T05:02:25.376Z,22.10
2019-02-23T05:04:59.863Z,20.23
2019-02-23T05:07:27.653Z,20.17
2019-02-23T05:10:00.912Z,20.60
2019-02-23T05:12:31.367Z,19.93
2019-02-23T05:14:59.261Z,20.13
2019-02-23T05:17:32.317Z,20.67
2019-02-23T05:20:03.541Z,19.87
2019-02-23T05:22:36.176Z,20.33
2019-02-23T05:25:38.230Z,20.00
2019-02-23T05:28:07.219Z,18.87
2019-02-23T05:30:40.196Z,18.47
2019-02-23T05:33:12.037Z,20.83
2019-02-23T05:35:42.244Z,19.73
2019-02-23T05:38:16.629Z,20.70
2019-02-23T05:40:44.451Z,19.70
2019-02-23T05:43:13.935Z,18.07
2019-02-23T05:45:41.617Z,17.87
2019-02-23T05:48:13.549Z,20.97
2019-02-23T05:50:41.251Z,19.87
2019-02-23T05:53:09.102Z,18.90
2019-02-23T05:55:36.747Z,19.03
2019-02-23T05:58:04.347Z,19.03
2019-02-23T06:00:31.909Z,18.80
2019-02-23T06:02:59.503Z,17.87
2019-02-23T06:05:27.056Z,18.00
2019-02-23T06:07:54.650Z,18.07
2019-02-23T06:10:27.643Z,16.87
2019-02-23T06:12:55.456Z,15.43
2019-02-23T06:15:23.542Z,14.40
2019-02-23T06:17:51.447Z,15.47
2019-02-23T06:20:22.750Z,15.90
2019-02-23T06:22:50.472Z,14.70
2019-02-23T06:25:20.191Z,17.87
2019-02-23T06:27:47.928Z,15.90
2019-02-23T06:30:18.322Z,16.30
2019-02-23T06:32:52.922Z,15.27
2019-02-23T06:35:20.695Z,16.00
2019-02-23T06:37:55.142Z,17.47
2019-02-23T06:40:24.610Z,17.97
2019-02-23T06:42:59.247Z,16.57
2019-02-23T06:45:26.970Z,16.90
2019-02-23T06:48:00.440Z,17.67
2019-02-23T06:50:28.154Z,17.47
2019-02-23T06:52:55.683Z,17.70
2019-02-23T06:55:25.831Z,17.10
2019-02-23T06:57:56.347Z,17.10
2019-02-23T07:00:23.864Z,18.13
2019-02-23T07:02:51.417Z,16.93
2019-02-23T07:05:18.996Z,17.90
2019-02-23T07:07:46.493Z,17.73
2019-02-23T07:10:14.566Z,17.27
2019-02-23T07:12:44.402Z,19.13
2019-02-23T07:15:12.790Z,18.97
2019-02-23T07:17:44.722Z,21.60
2019-02-23T07:20:14.624Z,20.20
2019-02-23T07:22:42.326Z,20.27
2019-02-23T07:25:09.989Z,21.57
2019-02-23T07:27:39.860Z,21.10
2019-02-23T07:30:08.765Z,21.00
2019-02-23T07:32:44.289Z,20.63
2019-02-23T07:35:13.662Z,20.43
2019-02-23T07:37:41.365Z,20.67
2019-02-23T07:40:09.335Z,20.77
2019-02-23T07:42:36.891Z,21.03
2019-02-23T07:45:07.871Z,20.40
2019-02-23T07:47:35.544Z,19.77
2019-02-23T07:50:03.461Z,19.83
2019-02-23T07:52:31.013Z,19.93
2019-02-23T07:54:58.563Z,20.23
2019-02-23T07:57:26.135Z,20.73
2019-02-23T07:59:56.917Z,20.37
2019-02-23T08:02:26.173Z,20.43
2019-02-23T08:04:53.990Z,20.23
2019-02-23T08:07:21.688Z,20.87
2019-02-23T08:09:49.369Z,19.23
2019-02-23T08:12:16.930Z,20.43
2019-02-23T08:14:44.787Z,18.77
2019-02-23T08:17:12.331Z,19.47
2019-02-23T08:19:39.982Z,19.10
2019-02-23T08:22:07.593Z,19.03
2019-02-23T08:24:36.984Z,18.23
2019-02-23T08:27:04.536Z,18.70
2019-02-23T08:29:37.613Z,19.30
2019-02-23T08:32:05.128Z,18.57
2019-02-23T08:34:32.676Z,19.13
2019-02-23T08:37:03.699Z,18.90
2019-02-23T08:39:31.250Z,17.97
2019-02-23T08:41:58.846Z,17.77
2019-02-23T08:44:26.369Z,17.43
2019-02-23T08:46:56.376Z,17.23
2019-02-23T08:49:26.788Z,18.07
2019-02-23T08:51:57.495Z,17.10
2019-02-23T08:54:25.328Z,17.53
2019-02-23T08:56:55.289Z,16.90
2019-02-23T08:59:22.392Z,16.93
2019-02-23T09:01:50.313Z,16.37
2019-02-23T09:04:18.192Z,16.07
2019-02-23T09:06:48.130Z,16.07
2019-02-23T09:09:28.533Z,15.73
2019-02-23T09:11:57.314Z,16.47
2019-02-23T09:14:24.904Z,16.67
2019-02-23T09:16:52.537Z,15.27
2019-02-23T09:19:21.061Z,15.27
2019-02-23T09:21:51.687Z,16.13
2019-02-23T09:24:19.487Z,15.97
2019-02-23T09:27:05.230Z,16.40
2019-02-23T09:29:39.055Z,14.57
2019-02-23T09:32:28.315Z,17.00
2019-02-23T09:35:03.340Z,15.60
2019-02-23T09:37:30.927Z,15.13
2019-02-23T09:39:58.525Z,15.17
2019-02-23T09:42:28.686Z,14.57
2019-02-23T09:44:56.683Z,15.40
2019-02-23T09:47:27.383Z,14.57
2019-02-23T09:49:58.264Z,15.13
2019-02-23T09:52:26.091Z,14.70
2019-02-23T09:54:55.670Z,14.87
2019-02-23T09:57:23.172Z,14.77
2019-02-23T09:59:51.063Z,14.80
2019-02-23T10:02:18.676Z,15.50
2019-02-23T10:04:48.702Z,14.53
2019-02-23T10:07:19.031Z,14.57
2019-02-23T10:09:46.678Z,14.33
2019-02-23T10:12:14.376Z,13.87
2019-02-23T10:14:42.021Z,13.20
2019-02-23T10:17:09.626Z,13.43
2019-02-23T10:19:47.136Z,12.53
2019-02-23T10:22:16.422Z,12.53
2019-02-23T10:24:43.990Z,12.93
2019-02-23T10:27:13.411Z,12.30
2019-02-23T10:29:41.154Z,12.80
2019-02-23T10:32:08.732Z,12.20
2019-02-23T10:34:37.564Z,13.20
2019-02-23T10:37:05.181Z,12.10
2019-02-23T10:39:32.806Z,12.27
2019-02-23T10:42:01.374Z,11.87
2019-02-23T10:44:28.976Z,11.73
2019-02-23T10:46:59.730Z,12.33
2019-02-23T10:49:27.328Z,11.63
2019-02-23T10:51:57.212Z,11.63
2019-02-23T10:54:24.820Z,11.50
2019-02-23T10:56:52.541Z,11.33
2019-02-23T10:59:20.094Z,11.67
2019-02-23T11:01:50.037Z,10.53
2019-02-23T11:04:17.742Z,10.70
2019-02-23T11:06:50.163Z,10.47
2019-02-23T11:09:22.162Z,10.73
2019-02-23T11:11:49.834Z,10.37
2019-02-23T11:14:17.474Z,10.57
2019-02-23T11:16:45.087Z,10.50
2019-02-23T11:19:12.716Z,11.50
2019-02-23T11:21:40.324Z,10.07
2019-02-23T11:24:10.679Z,10.37
2019-02-23T11:26:38.509Z,10.93
2019-02-23T11:29:06.129Z,10.73
2019-02-23T11:31:36.898Z,11.33
2019-02-23T11:34:04.506Z,10.97
2019-02-23T11:36:32.057Z,10.33
2019-02-23T11:38:59.614Z,11.60
2019-02-23T11:41:30.314Z,11.00
2019-02-23T11:43:57.860Z,10.37
2019-02-23T11:46:25.425Z,10.53
2019-02-23T11:48:53.008Z,10.17
2019-02-23T11:51:22.815Z,10.27
2019-02-23T11:53:54.909Z,10.77
2019-02-23T11:56:19.831Z,10.37
2019-02-23T11:58:47.511Z,10.07
2019-02-23T12:01:15.093Z,9.10
2019-02-23T12:03:42.715Z,10.67
2019-02-23T12:06:14.201Z,10.37
2019-02-23T12:08:45.085Z,9.70
2019-02-23T12:11:15.013Z,10.57
2019-02-23T12:13:42.650Z,11.00
2019-02-23T12:16:10.311Z,11.27
2019-02-23T12:18:37.917Z,10.37
2019-02-23T12:21:08.545Z,9.90
2019-02-23T12:23:36.385Z,9.80
2019-02-23T12:26:04.081Z,10.00
2019-02-23T12:28:31.669Z,9.93
2019-02-23T12:30:59.303Z,10.07
2019-02-23T12:33:31.136Z,9.60
2019-02-23T12:36:00.982Z,9.07
2019-02-23T12:38:28.533Z,9.53
2019-02-23T12:40:58.099Z,9.30
2019-02-23T12:43:25.720Z,10.17
2019-02-23T12:45:53.310Z,9.57
2019-02-23T12:48:23.175Z,9.33
2019-02-23T12:50:52.528Z,9.87
2019-02-23T12:53:20.159Z,9.53
2019-02-23T12:55:49.593Z,9.53
2019-02-23T12:58:18.942Z,9.30
2019-02-23T13:00:46.589Z,8.60
2019-02-23T13:03:14.240Z,8.80
2019-02-23T13:05:44.001Z,9.50
2019-02-23T13:08:16.333Z,9.07
2019-02-23T13:10:44.087Z,9.47
2019-02-23T13:13:37.947Z,10.03
2019-02-23T13:16:39.261Z,9.73
2019-02-23T13:19:51.686Z,9.87
2019-02-23T13:23:15.533Z,9.10
2019-02-23T13:26:26.531Z,9.20
2019-02-23T13:29:21.804Z,8.40
2019-02-23T13:32:26.939Z,8.57
2019-02-23T13:35:21.632Z,8.73
2019-02-23T13:38:12.460Z,8.07
2019-02-23T13:41:25.165Z,8.70
2019-02-23T13:44:19.212Z,8.80
2019-02-23T13:47:09.723Z,8.33
2019-02-23T13:50:23.081Z,8.30
2019-02-23T13:53:18.920Z,8.30
2019-02-23T13:56:14.644Z,9.30
2019-02-23T13:58:54.324Z,8.50
2019-02-23T14:02:15.989Z,8.40
2019-02-23T14:05:29.917Z,7.73
2019-02-23T14:08:41.568Z,8.17
2019-02-23T14:11:42.534Z,7.23
2019-02-23T14:14:47.086Z,8.13
2019-02-23T14:17:55.951Z,7.77
2019-02-23T14:20:54.144Z,7.90
2019-02-23T14:23:44.834Z,8.27
2019-02-23T14:26:44.975Z,8.53
2019-02-23T14:29:28.899Z,8.13
2019-02-23T14:32:31.806Z,8.20
2019-02-23T14:35:25.394Z,7.40
2019-02-23T14:38:36.281Z,7.97
2019-02-23T14:42:00.275Z,8.07
2019-02-23T14:45:03.724Z,7.90
2019-02-23T14:48:10.488Z,7.70
2019-02-23T14:50:54.640Z,7.60
2019-02-23T14:54:04.094Z,7.93
2019-02-23T14:57:16.301Z,8.40
2019-02-23T15:00:08.956Z,8.37
2019-02-23T15:03:18.459Z,8.50
2019-02-23T15:06:11.271Z,7.90
2019-02-23T15:09:26.525Z,8.10
2019-02-23T15:12:32.005Z,7.80
2019-02-23T15:15:31.003Z,8.07
2019-02-23T15:18:23.394Z,7.37
2019-02-23T15:21:31.782Z,8.27
2019-02-23T15:24:34.430Z,8.00
2019-02-23T15:27:42.957Z,7.10
2019-02-23T15:30:42.286Z,7.53
2019-02-23T15:33:47.515Z,7.77
2019-02-23T15:37:13.534Z,7.20
2019-02-23T15:40:18.691Z,8.40
2019-02-23T15:43:12.797Z,6.97
2019-02-23T15:46:24.793Z,7.20
2019-02-23T15:49:28.804Z,7.60
2019-02-23T15:51:56.475Z,7.53
2019-02-23T15:54:24.110Z,7.30
2019-02-23T15:56:52.914Z,8.03
2019-02-23T15:59:20.813Z,7.90
2019-02-23T16:01:48.467Z,7.90
2019-02-23T16:04:16.222Z,8.67
2019-02-23T16:06:51.210Z,7.43
2019-02-23T16:09:21.676Z,7.80
2019-02-23T16:11:50.401Z,8.03
2019-02-23T16:14:18.078Z,7.77
2019-02-23T16:16:47.476Z,8.40
2019-02-23T16:19:15.042Z,8.37
2019-02-23T16:21:42.695Z,9.67
2019-02-23T16:24:10.709Z,8.93
2019-02-23T16:26:38.257Z,9.37
2019-02-23T16:29:05.890Z,9.37
2019-02-23T16:31:33.545Z,9.37
2019-02-23T16:34:01.116Z,9.97
2019-02-23T16:36:28.728Z,8.77
2019-02-23T16:38:56.267Z,9.23
2019-02-23T16:41:23.874Z,8.97
2019-02-23T16:43:51.458Z,8.70
2019-02-23T16:46:21.201Z,8.70
2019-02-23T16:48:51.278Z,9.53
2019-02-23T16:51:18.909Z,9.73
2019-02-23T16:53:49.350Z,10.53
2019-02-23T16:56:16.936Z,11.77
2019-02-23T16:58:44.543Z,11.10
2019-02-23T17:01:12.386Z,11.67
2019-02-23T17:03:39.917Z,11.30
2019-02-23T17:06:07.871Z,12.43
2019-02-23T17:08:35.451Z,12.57
2019-02-23T17:11:03.486Z,12.20
2019-02-23T17:13:31.069Z,10.80
2019-02-23T17:15:58.676Z,12.63
2019-02-23T17:18:35.127Z,11.03
2019-02-23T17:21:05.395Z,12.03
2019-02-23T17:23:32.979Z,12.20
2019-02-23T17:26:04.197Z,11.77
2019-02-23T17:28:30.023Z,12.30
2019-02-23T17:30:57.561Z,12.53
2019-02-23T17:33:27.866Z,11.87
2019-02-23T17:35:54.631Z,12.57
2019-02-23T17:38:29.234Z,12.00
2019-02-23T17:40:56.837Z,12.07
2019-02-23T17:43:24.457Z,11.97
2019-02-23T17:45:52.103Z,12.97
2019-02-23T17:48:28.397Z,12.07
2019-02-23T17:50:56.297Z,11.93
2019-02-23T17:53:23.881Z,12.40
2019-02-23T17:55:51.478Z,10.77
2019-02-23T17:58:19.031Z,11.37
2019-02-23T18:00:46.602Z,11.10
2019-02-23T18:03:14.162Z,10.63
2019-02-23T18:05:41.757Z,11.70
2019-02-23T18:08:09.425Z,11.50
2019-02-23T18:10:37.226Z,11.60
2019-02-23T18:13:04.936Z,11.27
2019-02-23T18:15:32.503Z,11.30
2019-02-23T18:18:00.158Z,12.33
2019-02-23T18:20:27.816Z,10.87
2019-02-23T18:22:55.441Z,11.57
2019-02-23T18:25:23.871Z,11.83
2019-02-23T18:27:54.062Z,11.97
2019-02-23T18:30:21.665Z,11.60
2019-02-23T18:32:49.191Z,11.67
2019-02-23T18:35:17.268Z,12.10
2019-02-23T18:37:45.277Z,12.87
2019-02-23T18:40:16.026Z,12.33
2019-02-23T18:42:44.134Z,13.67
2019-02-23T18:45:11.708Z,12.77
2019-02-23T18:47:39.261Z,12.60
2019-02-23T18:50:08.081Z,13.43
2019-02-23T18:52:35.854Z,12.93
2019-02-23T18:55:09.400Z,12.73
2019-02-23T18:57:39.954Z,12.33
2019-02-23T19:00:09.406Z,13.60
2019-02-23T19:02:40.145Z,87.50
2019-02-23T19:05:09.771Z,97.30
2019-02-23T19:07:37.469Z,51.87
2019-02-23T19:10:06.466Z,50.43
2019-02-23T19:12:34.063Z,79.03
2019-02-23T19:15:05.515Z,51.57
2019-02-23T19:17:35.544Z,25.70
2019-02-23T19:20:03.488Z,20.63
2019-02-23T19:22:31.133Z,20.77
2019-02-23T19:24:58.820Z,34.97
2019-02-23T19:27:26.951Z,20.93
2019-02-23T19:29:54.712Z,24.10
2019-02-23T19:32:22.579Z,20.73
2019-02-23T19:35:06.723Z,18.30
2019-02-23T19:37:40.088Z,19.83
2019-02-23T19:40:07.786Z,16.93
2019-02-23T19:42:36.439Z,16.40
2019-02-23T19:45:05.080Z,16.13
2019-02-23T19:47:33.939Z,15.83
2019-02-23T19:50:13.314Z,15.10
2019-02-23T19:52:41.358Z,14.60
2019-02-23T19:55:10.351Z,14.57
2019-02-23T19:57:37.994Z,14.77
2019-02-23T20:00:06.123Z,15.23
2019-02-23T20:02:35.651Z,13.10
2019-02-23T20:05:09.004Z,12.97
2019-02-23T20:07:36.632Z,13.60
2019-02-23T20:10:04.922Z,13.47
2019-02-23T20:12:32.907Z,14.27
2019-02-23T20:15:00.697Z,15.70
2019-02-23T20:17:30.720Z,15.07
2019-02-23T20:20:02.691Z,15.57
2019-02-23T20:22:30.410Z,14.40
2019-02-23T20:25:18.172Z,15.40
2019-02-23T20:28:08.091Z,15.10
2019-02-23T20:30:54.227Z,15.13
2019-02-23T20:33:23.780Z,14.43
2019-02-23T20:36:02.159Z,14.60
2019-02-23T20:39:00.837Z,14.80
2019-02-23T20:41:30.261Z,14.80
2019-02-23T20:44:25.315Z,17.30
2019-02-23T20:47:20.048Z,14.77
2019-02-23T20:50:13.910Z,13.80
2019-02-23T20:52:55.439Z,16.57
2019-02-23T20:55:28.293Z,17.27
2019-02-23T20:58:21.301Z,17.63
2019-02-23T21:00:50.911Z,15.37
2019-02-23T21:03:22.833Z,16.03
2019-02-23T21:05:50.832Z,16.37
2019-02-23T21:08:39.439Z,18.37
2019-02-23T21:11:57.931Z,17.33
2019-02-23T21:15:05.035Z,16.73
2019-02-23T21:24:57.723Z,14.43
2019-02-23T21:27:29.599Z,15.27
2019-02-23T21:30:00.268Z,15.63
2019-02-23T21:32:29.609Z,16.03
2019-02-23T21:34:57.219Z,14.97
2019-02-23T21:37:33.165Z,16.63
2019-02-23T21:40:03.021Z,15.07
2019-02-23T21:42:30.640Z,14.53
2019-02-23T21:44:58.202Z,15.17
2019-02-23T21:47:28.623Z,15.60
2019-02-23T21:49:56.185Z,16.20
2019-02-23T21:52:23.789Z,15.93
2019-02-23T21:54:51.359Z,16.93
2019-02-23T21:57:22.141Z,16.10
2019-02-23T21:59:48.390Z,16.73
2019-02-23T22:02:15.956Z,17.43
2019-02-23T22:04:43.514Z,17.17
2019-02-23T22:07:11.049Z,17.60
2019-02-23T22:09:40.098Z,17.93
2019-02-23T22:12:07.547Z,16.17
2019-02-23T22:14:35.115Z,18.73
2019-02-23T22:17:02.741Z,17.93
2019-02-23T22:19:30.659Z,18.87
2019-02-23T22:21:58.401Z,17.87
2019-02-23T22:24:26.051Z,18.20
2019-02-23T22:26:53.608Z,17.83
2019-02-23T22:29:21.300Z,18.90
2019-02-23T22:31:48.923Z,18.60
2019-02-23T22:34:31.829Z,17.47
2019-02-23T22:37:02.291Z,16.30
2019-02-23T22:39:38.100Z,17.80
2019-02-23T22:42:10.056Z,16.70
2019-02-23T22:44:48.048Z,17.33
2019-02-23T22:47:22.972Z,17.20
2019-02-23T22:49:58.447Z,17.33
2019-02-23T22:52:26.092Z,17.93
2019-02-23T22:55:04.597Z,17.03
2019-02-23T22:57:40.480Z,17.23
2019-02-23T23:00:17.577Z,17.10
2019-02-23T23:02:55.440Z,16.53
2019-02-23T23:05:53.357Z,17.37
2019-02-23T23:08:24.259Z,17.03
2019-02-23T23:11:04.241Z,16.87
2019-02-23T23:13:26.953Z,16.90
2019-02-23T23:15:58.492Z,16.70
2019-02-23T23:18:37.972Z,17.47
2019-02-23T23:21:13.146Z,17.53
2019-02-23T23:23:53.477Z,16.87
2019-02-23T23:26:26.994Z,16.40
2019-02-23T23:28:56.076Z,17.60
2019-02-23T23:31:25.578Z,17.47
2019-02-23T23:33:53.193Z,16.37
2019-02-23T23:36:21.970Z,17.00
2019-02-23T23:38:49.630Z,17.80
2019-02-23T23:41:17.388Z,16.87
2019-02-23T23:43:45.009Z,16.30
2019-02-23T23:46:14.003Z,16.00
2019-02-23T23:48:41.714Z,16.50
2019-02-23T23:51:09.310Z,15.30
2019-02-23T23:53:39.537Z,17.10
2019-02-23T23:56:07.235Z,16.27
2019-02-23T23:58:34.812Z,15.60
